createdAt,value
2023-02-11T00:01:48.038Z,103501.59
2023-02-11T00:04:14.658Z,103511.81
2023-02-11T00:06:41.176Z,103509.34
2023-02-11T00:09:07.742Z,103500.84
2023-02-11T00:11:34.251Z,103491.47
2023-02-11T00:14:03.999Z,103492.31
2023-02-11T00:16:32.656Z,103499.97
2023-02-11T00:19:00.958Z,103500.84
2023-02-11T00:21:27.939Z,103500.00
2023-02-11T00:23:57.164Z,103488.91
2023-02-11T00:26:26.553Z,103501.66
2023-02-11T00:28:53.607Z,103504.16
2023-02-11T00:31:22.050Z,103498.19
2023-02-11T00:33:49.014Z,103495.59
2023-02-11T00:36:19.086Z,103497.22
2023-02-11T00:38:46.444Z,103498.13
2023-02-11T00:41:13.953Z,103494.81
2023-02-11T00:43:41.314Z,103500.00
2023-02-11T00:46:08.549Z,103498.19
2023-02-11T00:48:35.024Z,103498.19
2023-02-11T00:51:02.364Z,103504.91
2023-02-11T00:53:28.750Z,103508.25
2023-02-11T00:55:55.199Z,103508.25
2023-02-11T00:58:22.534Z,103496.41
2023-02-11T01:00:51.347Z,103488.66
2023-02-11T01:03:17.816Z,103486.97
2023-02-11T01:05:44.524Z,103482.66
2023-02-11T01:08:11.064Z,103479.97
2023-02-11T01:10:37.548Z,103470.56
2023-02-11T01:13:04.412Z,103461.09
2023-02-11T01:15:30.925Z,103470.41
2023-02-11T01:17:57.361Z,103474.56
2023-02-11T01:20:26.495Z,103470.28
2023-02-11T01:22:52.999Z,103460.06
2023-02-11T01:25:19.759Z,103444.66
2023-02-11T01:27:46.451Z,103435.25
2023-02-11T01:30:14.128Z,103441.19
2023-02-11T01:32:40.922Z,103446.28
2023-02-11T01:35:07.832Z,103460.56
2023-02-11T01:37:34.867Z,103473.31
2023-02-11T01:40:02.907Z,103475.94
2023-02-11T01:42:29.480Z,103493.84
2023-02-11T01:44:57.886Z,103486.22
2023-02-11T01:47:24.358Z,103485.34
2023-02-11T01:49:58.106Z,103480.28
2023-02-11T01:52:27.493Z,103477.69
2023-02-11T01:55:15.557Z,103474.25
2023-02-11T01:57:45.285Z,103475.91
2023-02-11T02:00:24.161Z,103480.16
2023-02-11T02:02:50.600Z,103496.22
2023-02-11T02:05:29.300Z,103485.94
2023-02-11T02:08:32.370Z,103492.75
2023-02-11T02:11:00.932Z,103490.16
2023-02-11T02:13:29.928Z,103478.19
2023-02-11T02:15:59.333Z,103479.84
2023-02-11T02:18:34.828Z,103475.69
2023-02-11T02:21:20.024Z,103472.22
2023-02-11T02:24:05.367Z,103478.09
2023-02-11T02:26:56.651Z,103473.72
2023-02-11T02:29:59.559Z,103475.22
2023-02-11T02:32:37.762Z,103469.09
2023-02-11T02:35:22.947Z,103474.91
2023-02-11T02:37:59.988Z,103471.31
2023-02-11T02:40:36.805Z,103461.06
2023-02-11T02:43:04.870Z,103452.53
2023-02-11T02:45:31.473Z,103447.38
2023-02-11T02:47:58.028Z,103455.84
2023-02-11T02:50:32.474Z,103454.19
2023-02-11T02:53:07.873Z,103462.72
2023-02-11T02:56:09.696Z,103466.22
2023-02-11T02:58:53.551Z,103458.59
2023-02-11T03:01:34.815Z,103468.13
2023-02-11T03:04:10.733Z,103459.66
2023-02-11T03:06:58.139Z,103459.66
2023-02-11T03:09:46.866Z,103445.16
2023-02-11T03:12:14.497Z,103450.25
2023-02-11T03:14:42.040Z,103445.09
2023-02-11T03:17:10.288Z,103444.31
2023-02-11T03:19:41.105Z,103434.09
2023-02-11T03:22:14.230Z,103427.28
2023-02-11T03:24:41.744Z,103429.00
2023-02-11T03:27:17.205Z,103428.09
2023-02-11T03:29:56.864Z,103424.78
2023-02-11T03:32:26.612Z,103424.72
2023-02-11T03:34:57.310Z,103428.09
2023-02-11T03:37:35.110Z,103422.94
2023-02-11T03:40:07.489Z,103423.88
2023-02-11T03:42:45.935Z,103418.75
2023-02-11T03:45:16.960Z,103413.66
2023-02-11T03:47:47.744Z,103410.09
2023-02-11T03:50:16.540Z,103405.00
2023-02-11T03:52:44.235Z,103404.09
2023-02-11T03:55:17.248Z,103405.63
2023-02-11T03:57:44.016Z,103414.88
2023-02-11T04:00:11.742Z,103413.19
2023-02-11T04:02:39.052Z,103419.19
2023-02-11T04:05:07.449Z,103423.44
2023-02-11T04:07:34.265Z,103430.19
2023-02-11T04:10:01.110Z,103429.38
2023-02-11T04:12:27.691Z,103435.28
2023-02-11T04:14:54.112Z,103427.69
2023-02-11T04:17:20.551Z,103426.94
2023-02-11T04:19:47.052Z,103426.94
2023-02-11T04:22:13.844Z,103431.19
2023-02-11T04:24:40.253Z,103441.53
2023-02-11T04:27:06.697Z,103432.19
2023-02-11T04:29:33.403Z,103429.66
2023-02-11T04:31:59.912Z,103440.72
2023-02-11T04:34:26.576Z,103436.56
2023-02-11T04:36:53.024Z,103442.56
2023-02-11T04:39:19.605Z,103441.78
2023-02-11T04:41:46.037Z,103441.78
2023-02-11T04:44:12.555Z,103441.84
2023-02-11T04:46:39.067Z,103441.84
2023-02-11T04:49:05.880Z,103446.13
2023-02-11T04:51:32.659Z,103441.13
2023-02-11T04:53:59.168Z,103445.44
2023-02-11T04:56:25.521Z,103436.97
2023-02-11T04:58:52.023Z,103442.09
2023-02-11T05:01:18.610Z,103438.78
2023-02-11T05:03:45.208Z,103438.84
2023-02-11T05:06:11.871Z,103441.47
2023-02-11T05:08:38.453Z,103437.22
2023-02-11T05:11:05.687Z,103443.25
2023-02-11T05:13:32.425Z,103446.59
2023-02-11T05:15:58.855Z,103447.63
2023-02-11T05:18:25.432Z,103445.09
2023-02-11T05:20:51.974Z,103447.66
2023-02-11T05:23:18.395Z,103443.41
2023-02-11T05:25:44.780Z,103444.25
2023-02-11T05:28:11.372Z,103449.41
2023-02-11T05:30:37.826Z,103443.47
2023-02-11T05:33:04.411Z,103441.78
2023-02-11T05:35:30.854Z,103454.56
2023-02-11T05:37:57.320Z,103438.41
2023-02-11T05:40:23.673Z,103429.09
2023-02-11T05:42:50.127Z,103439.31
2023-02-11T05:45:16.560Z,103432.56
2023-02-11T05:47:42.967Z,103425.75
2023-02-11T05:50:09.526Z,103435.94
2023-02-11T05:52:36.028Z,103431.72
2023-02-11T05:55:02.801Z,103435.94
2023-02-11T05:57:29.193Z,103435.94
2023-02-11T05:59:55.577Z,103431.69
2023-02-11T06:02:22.104Z,103436.84
2023-02-11T06:04:48.534Z,103440.34
2023-02-11T06:07:15.043Z,103437.03
2023-02-11T06:09:41.461Z,103439.56
2023-02-11T06:12:07.951Z,103451.59
2023-02-11T06:14:34.756Z,103450.75
2023-02-11T06:17:01.264Z,103449.09
2023-02-11T06:19:27.811Z,103447.34
2023-02-11T06:21:56.204Z,103450.81
2023-02-11T06:24:45.158Z,103450.88
2023-02-11T06:27:09.536Z,103451.78
2023-02-11T06:29:36.232Z,103445.94
2023-02-11T06:32:02.884Z,103449.31
2023-02-11T06:34:29.474Z,103454.50
2023-02-11T06:36:55.888Z,103447.69
2023-02-11T06:39:22.362Z,103440.06
2023-02-11T06:41:48.767Z,103445.19
2023-02-11T06:44:15.229Z,103449.47
2023-02-11T06:46:41.818Z,103448.59
2023-02-11T06:49:08.275Z,103441.75
2023-02-11T06:51:34.698Z,103441.03
2023-02-11T06:54:01.072Z,103446.13
2023-02-11T06:56:27.590Z,103441.00
2023-02-11T06:58:55.470Z,103448.63
2023-02-11T07:01:23.238Z,103445.22
2023-02-11T07:03:50.132Z,103444.47
2023-02-11T07:06:20.668Z,103459.81
2023-02-11T07:08:47.998Z,103457.28
2023-02-11T07:11:34.609Z,103462.44
2023-02-11T07:14:05.873Z,103461.69
2023-02-11T07:16:33.289Z,103467.69
2023-02-11T07:18:59.756Z,103466.88
2023-02-11T07:21:26.275Z,103466.88
2023-02-11T07:23:52.654Z,103470.28
2023-02-11T07:26:25.848Z,103483.06
2023-02-11T07:28:52.776Z,103476.28
2023-02-11T07:31:23.305Z,103484.94
2023-02-11T07:33:52.235Z,103490.13
2023-02-11T07:36:19.094Z,103490.28
2023-02-11T07:38:45.650Z,103481.84
2023-02-11T07:41:14.615Z,103484.41
2023-02-11T07:43:41.718Z,103492.91
2023-02-11T07:46:14.518Z,103494.69
2023-02-11T07:48:41.027Z,103498.97
2023-02-11T07:51:14.967Z,103495.63
2023-02-11T07:53:41.503Z,103502.44
2023-02-11T07:56:09.508Z,103499.09
2023-02-11T07:58:36.730Z,103488.91
2023-02-11T08:01:05.018Z,103488.91
2023-02-11T08:03:32.871Z,103502.59
2023-02-11T08:06:04.117Z,103488.09
2023-02-11T08:08:30.507Z,103493.25
2023-02-11T08:10:57.822Z,103494.13
2023-02-11T08:13:24.380Z,103495.91
2023-02-11T08:15:51.331Z,103497.72
2023-02-11T08:18:18.068Z,103502.03
2023-02-11T08:20:45.019Z,103504.69
2023-02-11T08:23:11.902Z,103493.69
2023-02-11T08:25:38.349Z,103497.13
2023-02-11T08:28:04.885Z,103499.75
2023-02-11T08:30:31.453Z,103502.38
2023-02-11T08:32:57.876Z,103506.72
2023-02-11T08:35:26.337Z,103502.47
2023-02-11T08:37:53.256Z,103506.78
2023-02-11T08:40:20.466Z,103509.38
2023-02-11T08:42:46.923Z,103514.56
2023-02-11T08:45:13.376Z,103521.41
2023-02-11T08:47:40.109Z,103518.88
2023-02-11T08:50:06.920Z,103517.25
2023-02-11T08:52:33.513Z,103518.16
2023-02-11T08:54:59.924Z,103515.69
2023-02-11T08:57:26.408Z,103525.16
2023-02-11T08:59:52.804Z,103528.63
2023-02-11T09:02:19.233Z,103527.84
2023-02-11T09:04:45.673Z,103527.19
2023-02-11T09:07:13.192Z,103534.13
2023-02-11T09:09:39.599Z,103539.34
2023-02-11T09:12:06.442Z,103540.34
2023-02-11T09:14:32.897Z,103537.88
2023-02-11T09:16:59.388Z,103540.56
2023-02-11T09:19:25.921Z,103543.25
2023-02-11T09:21:52.430Z,103551.06
2023-02-11T09:24:19.429Z,103546.03
2023-02-11T09:26:46.073Z,103548.63
2023-02-11T09:29:16.035Z,103552.13
2023-02-11T09:31:45.385Z,103553.88
2023-02-11T09:34:12.494Z,103549.63
2023-02-11T09:36:40.750Z,103555.66
2023-02-11T09:39:12.027Z,103553.97
2023-02-11T09:42:02.426Z,103557.56
2023-02-11T09:44:32.899Z,103561.88
2023-02-11T09:47:35.471Z,103565.44
2023-02-11T09:50:06.670Z,103566.38
2023-02-11T09:52:46.798Z,103570.78
2023-02-11T09:55:27.767Z,103570.03
2023-02-11T09:57:55.087Z,103575.25
2023-02-11T10:00:32.454Z,103578.78
2023-02-11T10:03:18.781Z,103579.66
2023-02-11T10:06:27.719Z,103576.38
2023-02-11T10:09:24.754Z,103583.34
2023-02-11T10:12:12.917Z,103593.72
2023-02-11T10:14:53.994Z,103592.94
2023-02-11T10:17:44.068Z,103598.16
2023-02-11T10:20:32.746Z,103601.72
2023-02-11T10:23:03.021Z,103602.84
2023-02-11T10:25:59.531Z,103602.38
2023-02-11T10:28:36.782Z,103612.78
2023-02-11T10:31:18.120Z,103611.41
2023-02-11T10:34:04.628Z,103618.56
2023-02-11T10:36:35.003Z,103610.16
2023-02-11T10:39:20.854Z,103614.41
2023-02-11T10:41:54.697Z,103617.91
2023-02-11T10:44:33.146Z,103625.59
2023-02-11T10:47:05.534Z,103622.03
2023-02-11T10:49:43.214Z,103636.53
2023-02-11T10:52:23.973Z,103625.31
2023-02-11T10:55:15.992Z,103614.94
2023-02-11T10:57:54.261Z,103621.75
2023-02-11T11:00:36.233Z,103625.97
2023-02-11T11:03:05.645Z,103619.16
2023-02-11T11:05:50.614Z,103623.56
2023-02-11T11:08:18.337Z,103637.34
2023-02-11T11:11:03.643Z,103628.91
2023-02-11T11:13:35.641Z,103634.13
2023-02-11T11:16:08.235Z,103644.69
2023-02-11T11:18:34.700Z,103645.66
2023-02-11T11:21:05.731Z,103642.13
2023-02-11T11:23:34.584Z,103646.47
2023-02-11T11:26:15.485Z,103656.69
2023-02-11T11:29:03.753Z,103654.03
2023-02-11T11:31:37.696Z,103654.09
2023-02-11T11:34:22.350Z,103662.72
2023-02-11T11:36:50.369Z,103661.06
2023-02-11T11:39:23.214Z,103666.28
2023-02-11T11:41:57.397Z,103670.66
2023-02-11T11:44:38.378Z,103668.22
2023-02-11T11:47:11.260Z,103657.13
2023-02-11T11:50:01.352Z,103655.56
2023-02-11T11:52:39.575Z,103650.53
2023-02-11T11:55:14.450Z,103641.16
2023-02-11T11:57:41.134Z,103637.81
2023-02-11T12:00:32.470Z,103643.78
2023-02-11T12:03:35.922Z,103645.44
2023-02-11T12:06:17.562Z,103644.66
2023-02-11T12:09:23.733Z,103631.03
2023-02-11T12:12:09.041Z,103631.06
2023-02-11T12:15:04.278Z,103625.88
2023-02-11T12:17:33.682Z,103626.69
2023-02-11T12:20:30.571Z,103630.91
2023-02-11T12:23:38.520Z,103638.69
2023-02-11T12:26:26.336Z,103631.03
2023-02-11T12:29:08.517Z,103637.03
2023-02-11T12:31:50.761Z,103630.16
2023-02-11T12:34:27.079Z,103630.97
2023-02-11T12:37:25.697Z,103628.28
2023-02-11T12:40:04.308Z,103626.56
2023-02-11T12:43:18.990Z,103631.72
2023-02-11T12:46:15.871Z,103629.19
2023-02-11T12:49:14.611Z,103641.28
2023-02-11T12:51:57.450Z,103622.44
2023-02-11T12:54:46.225Z,103631.09
2023-02-11T12:57:23.266Z,103631.13
2023-02-11T13:00:08.234Z,103625.94
2023-02-11T13:02:44.467Z,103625.91
2023-02-11T13:05:34.018Z,103630.34
2023-02-11T13:08:20.931Z,103617.69
2023-02-11T13:10:52.863Z,103620.31
2023-02-11T13:13:46.087Z,103628.03
2023-02-11T13:16:38.368Z,103634.09
2023-02-11T13:19:10.384Z,103638.41
2023-02-11T13:21:43.250Z,103630.72
2023-02-11T13:24:25.347Z,103621.34
2023-02-11T13:27:17.242Z,103618.84
2023-02-11T13:29:56.183Z,103626.59
2023-02-11T13:32:22.623Z,103618.06
2023-02-11T13:34:51.826Z,103613.72
2023-02-11T13:37:24.252Z,103615.38
2023-02-11T13:40:20.262Z,103605.97
2023-02-11T13:42:51.986Z,103612.84
2023-02-11T13:45:36.425Z,103610.22
2023-02-11T13:48:06.924Z,103608.56
2023-02-11T13:50:51.222Z,103619.75
2023-02-11T13:53:19.078Z,103616.34
2023-02-11T13:55:48.979Z,103615.50
2023-02-11T13:58:15.349Z,103607.81
2023-02-11T14:00:48.702Z,103613.84
2023-02-11T14:03:49.803Z,103612.13
2023-02-11T14:06:38.280Z,103618.00
2023-02-11T14:09:10.463Z,103629.13
2023-02-11T14:11:47.891Z,103626.47
2023-02-11T14:14:31.772Z,103618.72
2023-02-11T14:16:58.146Z,103622.13
2023-02-11T14:19:32.978Z,103622.94
2023-02-11T14:22:14.280Z,103622.00
2023-02-11T14:24:52.164Z,103627.13
2023-02-11T14:27:21.499Z,103634.00
2023-02-11T14:29:57.061Z,103622.03
2023-02-11T14:32:42.572Z,103623.81
2023-02-11T14:35:27.665Z,103622.13
2023-02-11T14:38:23.287Z,103632.44
2023-02-11T14:41:06.577Z,103630.72
2023-02-11T14:43:46.127Z,103633.28
2023-02-11T14:46:15.179Z,103630.72
2023-02-11T14:48:46.661Z,103634.13
2023-02-11T14:51:23.342Z,103632.41
2023-02-11T14:54:02.498Z,103637.53
2023-02-11T14:56:34.415Z,103635.78
2023-02-11T14:59:02.701Z,103633.97
2023-02-11T15:01:41.011Z,103638.19
2023-02-11T15:04:24.938Z,103635.56
2023-02-11T15:06:51.514Z,103638.13
2023-02-11T15:09:28.263Z,103637.28
2023-02-11T15:11:57.664Z,103635.56
2023-02-11T15:14:32.947Z,103638.13
2023-02-11T15:17:06.313Z,103639.03
2023-02-11T15:19:45.742Z,103643.25
2023-02-11T15:22:22.400Z,103656.06
2023-02-11T15:25:16.851Z,103654.31
2023-02-11T15:28:01.133Z,103662.81
2023-02-11T15:30:34.006Z,103656.78
2023-02-11T15:33:11.616Z,103652.41
2023-02-11T15:35:40.983Z,103653.19
2023-02-11T15:38:07.747Z,103659.97
2023-02-11T15:40:36.822Z,103655.56
2023-02-11T15:43:06.915Z,103659.69
2023-02-11T15:45:53.279Z,103657.88
2023-02-11T15:48:24.386Z,103657.81
2023-02-11T15:51:25.422Z,103657.75
2023-02-11T15:53:56.949Z,103660.25
2023-02-11T15:56:25.578Z,103663.59
2023-02-11T15:58:55.751Z,103663.53
2023-02-11T16:01:36.795Z,103660.03
2023-02-11T16:04:05.629Z,103670.19
2023-02-11T16:06:41.396Z,103674.38
2023-02-11T16:09:13.694Z,103670.94
2023-02-11T16:11:46.104Z,103672.56
2023-02-11T16:14:27.643Z,103670.81
2023-02-11T16:16:58.521Z,103672.47
2023-02-11T16:19:27.153Z,103670.66
2023-02-11T16:21:56.338Z,103668.06
2023-02-11T16:24:33.483Z,103672.25
2023-02-11T16:27:02.586Z,103682.34
2023-02-11T16:29:31.880Z,103681.44
2023-02-11T16:32:10.678Z,103692.47
2023-02-11T16:34:37.479Z,103687.28
2023-02-11T16:37:05.385Z,103683.81
2023-02-11T16:39:32.445Z,103686.28
2023-02-11T16:41:59.586Z,103687.09
2023-02-11T16:44:26.696Z,103688.78
2023-02-11T16:46:53.809Z,103686.16
2023-02-11T16:49:27.843Z,103697.19
2023-02-11T16:52:01.280Z,103703.16
2023-02-11T16:54:29.142Z,103704.78
2023-02-11T16:56:56.492Z,103702.22
2023-02-11T16:59:23.255Z,103699.63
2023-02-11T17:01:51.727Z,103712.38
2023-02-11T17:04:21.028Z,103724.31
2023-02-11T17:06:51.111Z,103726.88
2023-02-11T17:09:28.409Z,103727.72
2023-02-11T17:11:56.613Z,103732.84
2023-02-11T17:14:23.103Z,103731.97
2023-02-11T17:16:49.800Z,103734.50
2023-02-11T17:19:22.225Z,103728.47
2023-02-11T17:21:52.219Z,103739.53
2023-02-11T17:24:20.372Z,103737.81
2023-02-11T17:26:47.730Z,103736.88
2023-02-11T17:29:17.479Z,103744.50
2023-02-11T17:31:44.522Z,103740.09
2023-02-11T17:34:11.170Z,103737.50
2023-02-11T17:36:37.797Z,103738.31
2023-02-11T17:39:07.799Z,103746.81
2023-02-11T17:41:34.786Z,103747.59
2023-02-11T17:44:01.709Z,103749.25
2023-02-11T17:46:28.617Z,103750.06
2023-02-11T17:48:55.861Z,103753.44
2023-02-11T17:51:37.690Z,103755.16
2023-02-11T17:54:07.980Z,103760.22
2023-02-11T17:56:36.243Z,103757.63
2023-02-11T17:59:04.660Z,103756.69
2023-02-11T18:01:32.738Z,103759.25
2023-02-11T18:03:59.912Z,103754.06
2023-02-11T18:06:26.888Z,103760.00
2023-02-11T18:08:56.859Z,103764.19
2023-02-11T18:11:25.228Z,103765.00
2023-02-11T18:13:54.437Z,103763.25
2023-02-11T18:16:22.180Z,103769.22
2023-02-11T18:18:49.745Z,103772.56
2023-02-11T18:21:18.776Z,103769.97
2023-02-11T18:23:45.381Z,103775.88
2023-02-11T18:26:14.282Z,103783.50
2023-02-11T18:28:45.236Z,103772.41
2023-02-11T18:31:13.855Z,103782.63
2023-02-11T18:33:41.856Z,103783.44
2023-02-11T18:36:17.357Z,103789.38
2023-02-11T18:38:46.688Z,103786.81
2023-02-11T18:41:13.890Z,103791.94
2023-02-11T18:43:40.825Z,103796.16
2023-02-11T18:46:10.375Z,103800.38
2023-02-11T18:48:37.787Z,103800.34
2023-02-11T18:51:10.013Z,103793.56
2023-02-11T18:53:36.558Z,103802.06
2023-02-11T18:56:10.767Z,103807.19
2023-02-11T18:58:38.006Z,103793.56
2023-02-11T19:01:17.211Z,103796.91
2023-02-11T19:03:44.664Z,103803.75
2023-02-11T19:06:37.243Z,103802.88
2023-02-11T19:09:09.734Z,103807.97
2023-02-11T19:11:47.933Z,103805.44
2023-02-11T19:14:21.247Z,103803.72
2023-02-11T19:16:50.436Z,103806.28
2023-02-11T19:19:17.912Z,103807.97
2023-02-11T19:21:45.638Z,103807.06
2023-02-11T19:24:15.537Z,103812.19
2023-02-11T19:26:42.593Z,103810.44
2023-02-11T19:29:09.019Z,103817.25
2023-02-11T19:31:35.678Z,103810.41
2023-02-11T19:34:03.259Z,103821.44
2023-02-11T19:36:30.079Z,103831.72
2023-02-11T19:39:00.414Z,103836.00
2023-02-11T19:41:27.857Z,103829.16
2023-02-11T19:43:56.507Z,103841.09
2023-02-11T19:46:24.805Z,103841.91
2023-02-11T19:48:51.335Z,103838.53
2023-02-11T19:51:18.299Z,103841.13
2023-02-11T19:53:45.218Z,103842.81
2023-02-11T19:56:13.245Z,103838.50
2023-02-11T19:58:41.123Z,103841.06
2023-02-11T20:01:08.961Z,103840.22
2023-02-11T20:03:36.081Z,103842.78
2023-02-11T20:06:07.442Z,103853.84
2023-02-11T20:08:34.336Z,103861.50
2023-02-11T20:11:14.650Z,103861.50
2023-02-11T20:13:41.834Z,103859.78
2023-02-11T20:16:12.252Z,103858.94
2023-02-11T20:18:39.940Z,103860.69
2023-02-11T20:21:25.032Z,103857.19
2023-02-11T20:23:52.242Z,103861.50
2023-02-11T20:26:20.123Z,103868.31
2023-02-11T20:28:48.789Z,103864.00
2023-02-11T20:31:15.469Z,103870.84
2023-02-11T20:33:42.557Z,103873.44
2023-02-11T20:36:23.907Z,103874.25
2023-02-11T20:38:51.436Z,103879.31
2023-02-11T20:41:24.766Z,103888.66
2023-02-11T20:43:53.542Z,103883.50
2023-02-11T20:46:23.184Z,103886.91
2023-02-11T20:48:50.554Z,103885.22
2023-02-11T20:51:22.951Z,103884.41
2023-02-11T20:53:51.152Z,103886.06
2023-02-11T20:56:23.623Z,103888.53
2023-02-11T20:58:50.732Z,103891.91
2023-02-11T21:01:22.716Z,103896.13
2023-02-11T21:03:52.586Z,103901.22
2023-02-11T21:06:20.431Z,103907.25
2023-02-11T21:08:46.971Z,103899.50
2023-02-11T21:11:14.004Z,103908.88
2023-02-11T21:13:42.577Z,103904.59
2023-02-11T21:16:13.477Z,103904.63
2023-02-11T21:18:40.166Z,103908.88
2023-02-11T21:21:07.195Z,103905.44
2023-02-11T21:23:33.749Z,103914.00
2023-02-11T21:26:00.157Z,103913.97
2023-02-11T21:28:26.749Z,103914.78
2023-02-11T21:30:54.856Z,103913.16
2023-02-11T21:33:22.704Z,103918.25
2023-02-11T21:35:49.553Z,103925.91
2023-02-11T21:38:16.538Z,103926.75
2023-02-11T21:40:43.044Z,103929.31
2023-02-11T21:43:09.464Z,103925.00
2023-02-11T21:45:41.491Z,103925.94
2023-02-11T21:48:07.874Z,103935.31
2023-02-11T21:50:34.330Z,103939.53
2023-02-11T21:53:00.822Z,103930.97
2023-02-11T21:55:27.265Z,103935.25
2023-02-11T21:57:53.725Z,103927.53
2023-02-11T22:00:20.448Z,103931.81
2023-02-11T22:02:49.564Z,103935.19
2023-02-11T22:05:16.295Z,103936.91
2023-02-11T22:07:42.692Z,103935.19
2023-02-11T22:10:09.825Z,103934.34
2023-02-11T22:12:36.314Z,103944.53
2023-02-11T22:15:02.718Z,103947.94
2023-02-11T22:17:29.260Z,103945.34
2023-02-11T22:19:57.028Z,103955.56
2023-02-11T22:22:23.842Z,103953.81
2023-02-11T22:24:50.369Z,103953.78
2023-02-11T22:27:20.127Z,103952.13
2023-02-11T22:29:46.756Z,103947.84
2023-02-11T22:32:13.176Z,103957.28
2023-02-11T22:34:39.927Z,103956.38
2023-02-11T22:37:07.484Z,103959.78
2023-02-11T22:39:34.054Z,103955.50
2023-02-11T22:42:00.469Z,103952.94
2023-02-11T22:44:26.980Z,103959.78
2023-02-11T22:46:53.910Z,103952.97
2023-02-11T22:49:21.268Z,103957.22
2023-02-11T22:51:48.494Z,103952.06
2023-02-11T22:54:17.792Z,103957.16
2023-02-11T22:56:45.053Z,103953.66
2023-02-11T22:59:13.693Z,103961.31
2023-02-11T23:01:40.747Z,103949.38
2023-02-11T23:04:12.506Z,103956.16
2023-02-11T23:06:38.968Z,103960.44
2023-02-11T23:09:10.134Z,103967.34
2023-02-11T23:11:36.636Z,103964.72
2023-02-11T23:14:03.206Z,103957.88
2023-02-11T23:16:32.706Z,103960.44
2023-02-11T23:19:02.566Z,103956.03
2023-02-11T23:21:32.904Z,103964.56
2023-02-11T23:24:02.542Z,103963.75
2023-02-11T23:26:29.098Z,103960.34
2023-02-11T23:28:56.241Z,103957.75
2023-02-11T23:31:29.944Z,103965.41
2023-02-11T23:33:56.799Z,103960.34
2023-02-11T23:36:23.772Z,103966.28
2023-02-11T23:38:50.858Z,103962.84
2023-02-11T23:41:17.853Z,103965.41
2023-02-11T23:43:44.503Z,103963.75
2023-02-11T23:46:11.053Z,103963.72
2023-02-11T23:48:37.724Z,103965.41
2023-02-11T23:51:04.765Z,103958.56
2023-02-11T23:53:31.468Z,103957.69
2023-02-11T23:55:57.904Z,103961.06
2023-02-11T23:58:24.620Z,103960.13
